sensor_id;sensor_type;location;lat;lon;timestamp;temperature;humidity
3628;DHT22;1830;49.000;12.074;2023-04-25T00:01:40;8.00;99.90
3628;DHT22;1830;49.000;12.074;2023-04-25T00:04:07;8.00;99.90
3628;DHT22;1830;49.000;12.074;2023-04-25T00:06:36;8.00;99.90
3628;DHT22;1830;49.000;12.074;2023-04-25T00:09:03;8.00;99.90
3628;DHT22;1830;49.000;12.074;2023-04-25T00:11:32;8.00;99.90
3628;DHT22;1830;49.000;12.074;2023-04-25T00:13:59;7.90;99.90
3628;DHT22;1830;49.000;12.074;2023-04-25T00:16:27;7.90;99.90
3628;DHT22;1830;49.000;12.074;2023-04-25T00:18:54;7.90;99.90
3628;DHT22;1830;49.000;12.074;2023-04-25T00:21:22;7.90;99.90
3628;DHT22;1830;49.000;12.074;2023-04-25T00:23:52;7.90;99.90
3628;DHT22;1830;49.000;12.074;2023-04-25T00:26:19;7.90;99.90
3628;DHT22;1830;49.000;12.074;2023-04-25T00:28:46;7.90;99.90
3628;DHT22;1830;49.000;12.074;2023-04-25T00:31:13;7.90;99.90
3628;DHT22;1830;49.000;12.074;2023-04-25T00:33:40;7.90;99.90
3628;DHT22;1830;49.000;12.074;2023-04-25T00:36:08;7.90;99.90
3628;DHT22;1830;49.000;12.074;2023-04-25T00:38:35;7.80;99.90
3628;DHT22;1830;49.000;12.074;2023-04-25T00:41:06;7.80;99.90
3628;DHT22;1830;49.000;12.074;2023-04-25T00:43:33;7.90;99.90
3628;DHT22;1830;49.000;12.074;2023-04-25T00:46:00;7.90;99.90
3628;DHT22;1830;49.000;12.074;2023-04-25T00:48:27;7.90;99.90
3628;DHT22;1830;49.000;12.074;2023-04-25T00:50:57;7.80;99.90
3628;DHT22;1830;49.000;12.074;2023-04-25T00:53:25;7.90;99.90
3628;DHT22;1830;49.000;12.074;2023-04-25T00:55:52;7.90;99.90
3628;DHT22;1830;49.000;12.074;2023-04-25T00:58:21;7.90;99.90
3628;DHT22;1830;49.000;12.074;2023-04-25T01:00:49;7.90;99.90
3628;DHT22;1830;49.000;12.074;2023-04-25T01:03:17;7.90;99.90
3628;DHT22;1830;49.000;12.074;2023-04-25T01:05:45;7.80;99.90
3628;DHT22;1830;49.000;12.074;2023-04-25T01:08:12;7.80;99.90
3628;DHT22;1830;49.000;12.074;2023-04-25T01:10:39;7.80;99.90
3628;DHT22;1830;49.000;12.074;2023-04-25T01:13:06;7.90;99.90
3628;DHT22;1830;49.000;12.074;2023-04-25T01:15:35;7.80;99.90
3628;DHT22;1830;49.000;12.074;2023-04-25T01:18:03;7.80;99.90
3628;DHT22;1830;49.000;12.074;2023-04-25T01:20:32;7.70;99.90
3628;DHT22;1830;49.000;12.074;2023-04-25T01:23:00;7.80;99.90
3628;DHT22;1830;49.000;12.074;2023-04-25T01:25:29;7.80;99.90
3628;DHT22;1830;49.000;12.074;2023-04-25T01:27:56;7.70;99.90
3628;DHT22;1830;49.000;12.074;2023-04-25T01:30:24;7.80;99.90
3628;DHT22;1830;49.000;12.074;2023-04-25T01:32:53;7.80;99.90
3628;DHT22;1830;49.000;12.074;2023-04-25T01:35:20;7.80;99.90
3628;DHT22;1830;49.000;12.074;2023-04-25T01:37:49;7.70;99.90
3628;DHT22;1830;49.000;12.074;2023-04-25T01:40:17;7.80;99.90
3628;DHT22;1830;49.000;12.074;2023-04-25T01:42:45;7.90;99.90
3628;DHT22;1830;49.000;12.074;2023-04-25T01:45:13;7.80;99.90
3628;DHT22;1830;49.000;12.074;2023-04-25T01:47:40;7.80;99.90
3628;DHT22;1830;49.000;12.074;2023-04-25T01:50:09;7.80;99.90
3628;DHT22;1830;49.000;12.074;2023-04-25T01:52:36;7.70;99.90
3628;DHT22;1830;49.000;12.074;2023-04-25T01:55:03;7.70;99.90
3628;DHT22;1830;49.000;12.074;2023-04-25T01:57:32;7.70;99.90
3628;DHT22;1830;49.000;12.074;2023-04-25T02:00:00;7.70;99.90
3628;DHT22;1830;49.000;12.074;2023-04-25T02:02:28;7.80;99.90
3628;DHT22;1830;49.000;12.074;2023-04-25T02:04:55;7.90;99.90
3628;DHT22;1830;49.000;12.074;2023-04-25T02:07:22;7.70;99.90
3628;DHT22;1830;49.000;12.074;2023-04-25T02:09:48;7.70;99.90
3628;DHT22;1830;49.000;12.074;2023-04-25T02:12:15;7.70;99.90
3628;DHT22;1830;49.000;12.074;2023-04-25T02:14:43;7.70;99.90
3628;DHT22;1830;49.000;12.074;2023-04-25T02:17:10;7.70;99.90
3628;DHT22;1830;49.000;12.074;2023-04-25T02:19:38;7.70;99.90
3628;DHT22;1830;49.000;12.074;2023-04-25T02:22:05;7.60;99.90
3628;DHT22;1830;49.000;12.074;2023-04-25T02:24:31;7.60;99.90
3628;DHT22;1830;49.000;12.074;2023-04-25T02:26:59;7.50;99.90
3628;DHT22;1830;49.000;12.074;2023-04-25T02:29:26;7.50;99.90
3628;DHT22;1830;49.000;12.074;2023-04-25T02:31:54;7.50;99.90
3628;DHT22;1830;49.000;12.074;2023-04-25T02:34:21;7.50;99.90
3628;DHT22;1830;49.000;12.074;2023-04-25T02:36:48;7.40;99.90
3628;DHT22;1830;49.000;12.074;2023-04-25T02:39:15;7.60;99.90
3628;DHT22;1830;49.000;12.074;2023-04-25T02:41:41;7.80;99.90
3628;DHT22;1830;49.000;12.074;2023-04-25T02:44:08;7.70;99.90
3628;DHT22;1830;49.000;12.074;2023-04-25T02:46:35;7.90;99.90
3628;DHT22;1830;49.000;12.074;2023-04-25T02:49:03;7.90;99.90
3628;DHT22;1830;49.000;12.074;2023-04-25T02:51:30;8.00;99.90
3628;DHT22;1830;49.000;12.074;2023-04-25T02:53:58;7.90;99.90
3628;DHT22;1830;49.000;12.074;2023-04-25T02:56:24;8.00;99.90
3628;DHT22;1830;49.000;12.074;2023-04-25T02:58:52;8.10;99.90
3628;DHT22;1830;49.000;12.074;2023-04-25T03:01:19;8.10;99.90
3628;DHT22;1830;49.000;12.074;2023-04-25T03:03:45;8.10;99.90
3628;DHT22;1830;49.000;12.074;2023-04-25T03:06:13;8.10;99.90
3628;DHT22;1830;49.000;12.074;2023-04-25T03:08:40;8.00;99.90
3628;DHT22;1830;49.000;12.074;2023-04-25T03:11:08;7.90;99.90
3628;DHT22;1830;49.000;12.074;2023-04-25T03:13:35;7.90;99.90
3628;DHT22;1830;49.000;12.074;2023-04-25T03:16:01;7.90;99.90
3628;DHT22;1830;49.000;12.074;2023-04-25T03:18:28;7.90;99.90
3628;DHT22;1830;49.000;12.074;2023-04-25T03:20:55;7.80;99.90
3628;DHT22;1830;49.000;12.074;2023-04-25T03:23:23;7.90;99.90
3628;DHT22;1830;49.000;12.074;2023-04-25T03:25:50;7.80;99.90
3628;DHT22;1830;49.000;12.074;2023-04-25T03:28:17;7.70;99.90
3628;DHT22;1830;49.000;12.074;2023-04-25T03:30:43;7.70;99.90
3628;DHT22;1830;49.000;12.074;2023-04-25T03:33:10;7.70;99.90
3628;DHT22;1830;49.000;12.074;2023-04-25T03:35:37;7.70;99.90
3628;DHT22;1830;49.000;12.074;2023-04-25T03:38:04;7.70;99.90
3628;DHT22;1830;49.000;12.074;2023-04-25T03:40:32;7.70;99.90
3628;DHT22;1830;49.000;12.074;2023-04-25T03:42:59;7.60;99.90
3628;DHT22;1830;49.000;12.074;2023-04-25T03:45:26;7.60;99.90
3628;DHT22;1830;49.000;12.074;2023-04-25T03:47:52;7.40;99.90
3628;DHT22;1830;49.000;12.074;2023-04-25T03:50:20;7.40;99.90
3628;DHT22;1830;49.000;12.074;2023-04-25T03:52:47;7.40;99.90
3628;DHT22;1830;49.000;12.074;2023-04-25T03:55:14;7.60;99.90
3628;DHT22;1830;49.000;12.074;2023-04-25T03:57:42;7.50;99.90
3628;DHT22;1830;49.000;12.074;2023-04-25T04:00:10;7.40;99.90
3628;DHT22;1830;49.000;12.074;2023-04-25T04:02:36;7.40;99.90
3628;DHT22;1830;49.000;12.074;2023-04-25T04:05:04;7.60;99.90
3628;DHT22;1830;49.000;12.074;2023-04-25T04:07:32;7.60;99.90
3628;DHT22;1830;49.000;12.074;2023-04-25T04:10:02;7.50;99.90
3628;DHT22;1830;49.000;12.074;2023-04-25T04:12:30;7.50;99.90
3628;DHT22;1830;49.000;12.074;2023-04-25T04:14:59;7.50;99.90
3628;DHT22;1830;49.000;12.074;2023-04-25T04:17:25;7.70;99.90
3628;DHT22;1830;49.000;12.074;2023-04-25T04:19:52;7.80;99.90
3628;DHT22;1830;49.000;12.074;2023-04-25T04:22:19;7.80;99.90
3628;DHT22;1830;49.000;12.074;2023-04-25T04:24:46;7.90;99.90
3628;DHT22;1830;49.000;12.074;2023-04-25T04:27:13;7.80;99.90
3628;DHT22;1830;49.000;12.074;2023-04-25T04:29:40;7.80;99.90
3628;DHT22;1830;49.000;12.074;2023-04-25T04:32:08;7.70;99.90
3628;DHT22;1830;49.000;12.074;2023-04-25T04:34:35;7.60;99.90
3628;DHT22;1830;49.000;12.074;2023-04-25T04:37:02;8.00;99.90
3628;DHT22;1830;49.000;12.074;2023-04-25T04:39:29;8.00;99.90
3628;DHT22;1830;49.000;12.074;2023-04-25T04:41:57;7.90;99.90
3628;DHT22;1830;49.000;12.074;2023-04-25T04:44:25;7.80;99.90
3628;DHT22;1830;49.000;12.074;2023-04-25T04:46:51;7.80;99.90
3628;DHT22;1830;49.000;12.074;2023-04-25T04:49:21;7.80;99.90
3628;DHT22;1830;49.000;12.074;2023-04-25T04:51:48;7.70;99.90
3628;DHT22;1830;49.000;12.074;2023-04-25T04:54:15;7.80;99.90
3628;DHT22;1830;49.000;12.074;2023-04-25T04:56:42;7.70;99.90
3628;DHT22;1830;49.000;12.074;2023-04-25T04:59:09;7.70;99.90
3628;DHT22;1830;49.000;12.074;2023-04-25T05:01:36;7.60;99.90
3628;DHT22;1830;49.000;12.074;2023-04-25T05:04:02;7.40;99.90
3628;DHT22;1830;49.000;12.074;2023-04-25T05:06:31;7.50;99.90
3628;DHT22;1830;49.000;12.074;2023-04-25T05:08:58;7.30;99.90
3628;DHT22;1830;49.000;12.074;2023-04-25T05:11:25;7.30;99.90
3628;DHT22;1830;49.000;12.074;2023-04-25T05:13:52;7.30;99.90
3628;DHT22;1830;49.000;12.074;2023-04-25T05:16:19;7.30;99.90
3628;DHT22;1830;49.000;12.074;2023-04-25T05:18:46;7.20;99.90
3628;DHT22;1830;49.000;12.074;2023-04-25T05:21:13;7.20;99.90
3628;DHT22;1830;49.000;12.074;2023-04-25T05:23:43;7.10;99.90
3628;DHT22;1830;49.000;12.074;2023-04-25T05:26:10;7.20;99.90
3628;DHT22;1830;49.000;12.074;2023-04-25T05:28:39;7.10;99.90
3628;DHT22;1830;49.000;12.074;2023-04-25T05:31:06;7.00;99.90
3628;DHT22;1830;49.000;12.074;2023-04-25T05:33:33;7.00;99.90
3628;DHT22;1830;49.000;12.074;2023-04-25T05:36:00;7.10;99.90
3628;DHT22;1830;49.000;12.074;2023-04-25T05:38:27;7.30;99.90
3628;DHT22;1830;49.000;12.074;2023-04-25T05:40:55;7.30;99.90
3628;DHT22;1830;49.000;12.074;2023-04-25T05:43:22;7.20;99.90
3628;DHT22;1830;49.000;12.074;2023-04-25T05:45:49;7.30;99.90
3628;DHT22;1830;49.000;12.074;2023-04-25T05:48:16;7.40;99.90
3628;DHT22;1830;49.000;12.074;2023-04-25T05:50:42;7.50;99.90
3628;DHT22;1830;49.000;12.074;2023-04-25T05:53:09;7.60;99.90
3628;DHT22;1830;49.000;12.074;2023-04-25T05:55:36;7.60;99.90
3628;DHT22;1830;49.000;12.074;2023-04-25T05:58:05;7.60;99.90
3628;DHT22;1830;49.000;12.074;2023-04-25T06:00:32;7.70;99.90
3628;DHT22;1830;49.000;12.074;2023-04-25T06:02:59;8.00;99.90
3628;DHT22;1830;49.000;12.074;2023-04-25T06:05:26;8.10;99.90
3628;DHT22;1830;49.000;12.074;2023-04-25T06:07:53;8.20;99.90
3628;DHT22;1830;49.000;12.074;2023-04-25T06:10:20;8.30;99.90
3628;DHT22;1830;49.000;12.074;2023-04-25T06:12:48;8.40;99.90
3628;DHT22;1830;49.000;12.074;2023-04-25T06:15:18;8.50;99.90
3628;DHT22;1830;49.000;12.074;2023-04-25T06:17:45;8.50;99.90
3628;DHT22;1830;49.000;12.074;2023-04-25T06:20:12;8.80;99.90
3628;DHT22;1830;49.000;12.074;2023-04-25T06:22:38;8.70;99.90
3628;DHT22;1830;49.000;12.074;2023-04-25T06:25:19;8.70;99.90
3628;DHT22;1830;49.000;12.074;2023-04-25T06:27:46;8.80;99.90
3628;DHT22;1830;49.000;12.074;2023-04-25T06:30:13;8.90;99.90
3628;DHT22;1830;49.000;12.074;2023-04-25T06:32:42;8.90;99.90
3628;DHT22;1830;49.000;12.074;2023-04-25T06:35:09;9.00;99.90
3628;DHT22;1830;49.000;12.074;2023-04-25T06:37:35;8.80;99.90
3628;DHT22;1830;49.000;12.074;2023-04-25T06:40:03;9.00;99.90
3628;DHT22;1830;49.000;12.074;2023-04-25T06:42:30;8.90;99.90
3628;DHT22;1830;49.000;12.074;2023-04-25T06:44:56;8.70;99.90
3628;DHT22;1830;49.000;12.074;2023-04-25T06:47:23;8.70;99.90
3628;DHT22;1830;49.000;12.074;2023-04-25T06:49:51;8.80;99.90
3628;DHT22;1830;49.000;12.074;2023-04-25T06:52:18;9.00;99.90
3628;DHT22;1830;49.000;12.074;2023-04-25T06:54:45;9.20;99.90
3628;DHT22;1830;49.000;12.074;2023-04-25T06:57:12;9.30;99.90
3628;DHT22;1830;49.000;12.074;2023-04-25T06:59:39;9.30;99.90
3628;DHT22;1830;49.000;12.074;2023-04-25T07:02:06;9.50;99.90
3628;DHT22;1830;49.000;12.074;2023-04-25T07:04:32;9.60;99.90
3628;DHT22;1830;49.000;12.074;2023-04-25T07:07:01;9.70;99.90
3628;DHT22;1830;49.000;12.074;2023-04-25T07:09:28;9.60;99.90
3628;DHT22;1830;49.000;12.074;2023-04-25T07:11:55;9.60;99.90
3628;DHT22;1830;49.000;12.074;2023-04-25T07:14:22;9.60;99.90
3628;DHT22;1830;49.000;12.074;2023-04-25T07:16:49;9.50;99.90
3628;DHT22;1830;49.000;12.074;2023-04-25T07:19:16;9.70;99.90
3628;DHT22;1830;49.000;12.074;2023-04-25T07:21:43;9.80;99.90
3628;DHT22;1830;49.000;12.074;2023-04-25T07:24:11;9.80;99.90
3628;DHT22;1830;49.000;12.074;2023-04-25T07:26:38;10.00;99.90
3628;DHT22;1830;49.000;12.074;2023-04-25T07:29:05;9.90;99.90
3628;DHT22;1830;49.000;12.074;2023-04-25T07:31:32;9.90;99.90
3628;DHT22;1830;49.000;12.074;2023-04-25T07:33:58;9.70;99.90
3628;DHT22;1830;49.000;12.074;2023-04-25T07:36:25;9.70;99.90
3628;DHT22;1830;49.000;12.074;2023-04-25T07:38:52;9.90;99.90
3628;DHT22;1830;49.000;12.074;2023-04-25T07:41:20;10.00;99.90
3628;DHT22;1830;49.000;12.074;2023-04-25T07:43:47;9.90;99.90
3628;DHT22;1830;49.000;12.074;2023-04-25T07:46:14;10.00;99.90
3628;DHT22;1830;49.000;12.074;2023-04-25T07:48:41;10.10;99.90
3628;DHT22;1830;49.000;12.074;2023-04-25T07:51:08;10.00;99.90
3628;DHT22;1830;49.000;12.074;2023-04-25T07:53:34;10.20;99.90
3628;DHT22;1830;49.000;12.074;2023-04-25T07:56:03;10.10;99.90
3628;DHT22;1830;49.000;12.074;2023-04-25T07:58:31;10.20;99.90
3628;DHT22;1830;49.000;12.074;2023-04-25T08:00:58;10.20;99.90
3628;DHT22;1830;49.000;12.074;2023-04-25T08:03:25;10.20;99.90
3628;DHT22;1830;49.000;12.074;2023-04-25T08:05:51;10.00;99.90
3628;DHT22;1830;49.000;12.074;2023-04-25T08:08:18;9.70;99.90
3628;DHT22;1830;49.000;12.074;2023-04-25T08:10:45;9.90;99.90
3628;DHT22;1830;49.000;12.074;2023-04-25T08:13:13;10.00;99.90
3628;DHT22;1830;49.000;12.074;2023-04-25T08:15:41;10.00;99.90
3628;DHT22;1830;49.000;12.074;2023-04-25T08:18:08;10.00;99.90
3628;DHT22;1830;49.000;12.074;2023-04-25T08:20:35;10.10;99.90
3628;DHT22;1830;49.000;12.074;2023-04-25T08:23:02;10.10;99.90
3628;DHT22;1830;49.000;12.074;2023-04-25T08:25:29;10.20;99.90
3628;DHT22;1830;49.000;12.074;2023-04-25T08:27:55;10.40;99.90
3628;DHT22;1830;49.000;12.074;2023-04-25T08:30:24;10.50;99.90
3628;DHT22;1830;49.000;12.074;2023-04-25T08:32:53;10.60;99.90
3628;DHT22;1830;49.000;12.074;2023-04-25T08:35:21;10.80;99.90
3628;DHT22;1830;49.000;12.074;2023-04-25T08:37:47;10.60;99.90
3628;DHT22;1830;49.000;12.074;2023-04-25T08:40:15;10.60;99.90
3628;DHT22;1830;49.000;12.074;2023-04-25T08:42:42;10.70;99.90
3628;DHT22;1830;49.000;12.074;2023-04-25T08:45:10;10.80;99.90
3628;DHT22;1830;49.000;12.074;2023-04-25T08:47:38;10.90;99.90
3628;DHT22;1830;49.000;12.074;2023-04-25T08:50:07;11.00;99.90
3628;DHT22;1830;49.000;12.074;2023-04-25T08:52:36;11.00;99.90
3628;DHT22;1830;49.000;12.074;2023-04-25T08:55:05;11.10;99.90
3628;DHT22;1830;49.000;12.074;2023-04-25T08:57:34;11.00;99.90
3628;DHT22;1830;49.000;12.074;2023-04-25T09:00:01;11.00;99.90
3628;DHT22;1830;49.000;12.074;2023-04-25T09:02:29;11.00;99.90
3628;DHT22;1830;49.000;12.074;2023-04-25T09:04:56;11.30;99.90
3628;DHT22;1830;49.000;12.074;2023-04-25T09:07:24;11.10;99.90
3628;DHT22;1830;49.000;12.074;2023-04-25T09:09:51;11.00;99.90
3628;DHT22;1830;49.000;12.074;2023-04-25T09:12:19;10.90;99.90
3628;DHT22;1830;49.000;12.074;2023-04-25T09:15:05;11.00;99.90
3628;DHT22;1830;49.000;12.074;2023-04-25T09:17:32;11.00;99.90
3628;DHT22;1830;49.000;12.074;2023-04-25T09:20:06;11.00;99.90
3628;DHT22;1830;49.000;12.074;2023-04-25T09:22:35;11.00;99.90
3628;DHT22;1830;49.000;12.074;2023-04-25T09:25:04;10.80;99.90
3628;DHT22;1830;49.000;12.074;2023-04-25T09:27:34;10.50;99.90
3628;DHT22;1830;49.000;12.074;2023-04-25T09:30:01;10.30;99.90
3628;DHT22;1830;49.000;12.074;2023-04-25T09:32:28;10.50;99.90
3628;DHT22;1830;49.000;12.074;2023-04-25T09:34:56;10.60;99.90
3628;DHT22;1830;49.000;12.074;2023-04-25T09:37:24;10.50;99.90
3628;DHT22;1830;49.000;12.074;2023-04-25T09:39:55;10.30;99.90
3628;DHT22;1830;49.000;12.074;2023-04-25T09:42:23;10.40;99.90
3628;DHT22;1830;49.000;12.074;2023-04-25T09:44:52;10.50;99.90
3628;DHT22;1830;49.000;12.074;2023-04-25T09:47:20;10.50;99.90
3628;DHT22;1830;49.000;12.074;2023-04-25T09:49:49;10.60;99.90
3628;DHT22;1830;49.000;12.074;2023-04-25T09:52:17;10.60;99.90
3628;DHT22;1830;49.000;12.074;2023-04-25T09:54:45;10.60;99.90
3628;DHT22;1830;49.000;12.074;2023-04-25T09:57:15;10.50;99.90
3628;DHT22;1830;49.000;12.074;2023-04-25T09:59:46;10.70;99.90
3628;DHT22;1830;49.000;12.074;2023-04-25T10:02:15;10.90;99.90
3628;DHT22;1830;49.000;12.074;2023-04-25T10:04:44;10.90;99.90
3628;DHT22;1830;49.000;12.074;2023-04-25T10:07:12;10.80;99.90
3628;DHT22;1830;49.000;12.074;2023-04-25T10:09:39;10.70;99.90
3628;DHT22;1830;49.000;12.074;2023-04-25T10:12:07;10.80;99.90
3628;DHT22;1830;49.000;12.074;2023-04-25T10:14:35;10.80;99.90
3628;DHT22;1830;49.000;12.074;2023-04-25T10:17:02;10.90;99.90
3628;DHT22;1830;49.000;12.074;2023-04-25T10:19:29;11.00;99.90
3628;DHT22;1830;49.000;12.074;2023-04-25T10:22:03;11.00;99.90
3628;DHT22;1830;49.000;12.074;2023-04-25T10:24:31;11.20;99.90
3628;DHT22;1830;49.000;12.074;2023-04-25T10:26:58;11.40;99.90
3628;DHT22;1830;49.000;12.074;2023-04-25T10:29:27;11.30;99.90
3628;DHT22;1830;49.000;12.074;2023-04-25T10:31:57;11.50;99.90
3628;DHT22;1830;49.000;12.074;2023-04-25T10:34:25;11.30;99.90
3628;DHT22;1830;49.000;12.074;2023-04-25T10:37:03;11.10;99.90
3628;DHT22;1830;49.000;12.074;2023-04-25T10:39:32;10.90;99.90
3628;DHT22;1830;49.000;12.074;2023-04-25T10:42:01;10.60;99.90
3628;DHT22;1830;49.000;12.074;2023-04-25T10:44:29;10.50;99.90
3628;DHT22;1830;49.000;12.074;2023-04-25T10:47:01;10.60;99.90
3628;DHT22;1830;49.000;12.074;2023-04-25T10:49:29;10.50;99.90
3628;DHT22;1830;49.000;12.074;2023-04-25T10:52:14;10.50;99.90
3628;DHT22;1830;49.000;12.074;2023-04-25T10:54:42;10.60;99.90
3628;DHT22;1830;49.000;12.074;2023-04-25T10:57:27;10.80;99.90
3628;DHT22;1830;49.000;12.074;2023-04-25T11:00:05;11.00;99.90
3628;DHT22;1830;49.000;12.074;2023-04-25T11:02:41;11.30;99.90
3628;DHT22;1830;49.000;12.074;2023-04-25T11:05:08;11.20;99.90
3628;DHT22;1830;49.000;12.074;2023-04-25T11:07:39;11.30;99.90
3628;DHT22;1830;49.000;12.074;2023-04-25T11:10:10;11.50;99.90
3628;DHT22;1830;49.000;12.074;2023-04-25T11:12:36;11.40;99.90
3628;DHT22;1830;49.000;12.074;2023-04-25T11:15:04;11.50;99.90
3628;DHT22;1830;49.000;12.074;2023-04-25T11:17:32;11.50;99.90
3628;DHT22;1830;49.000;12.074;2023-04-25T11:20:00;11.40;99.90
3628;DHT22;1830;49.000;12.074;2023-04-25T11:22:32;11.40;99.90
3628;DHT22;1830;49.000;12.074;2023-04-25T11:25:05;11.40;99.90
3628;DHT22;1830;49.000;12.074;2023-04-25T11:27:32;11.80;99.90
3628;DHT22;1830;49.000;12.074;2023-04-25T11:29:59;11.90;99.40
3628;DHT22;1830;49.000;12.074;2023-04-25T11:32:26;11.90;99.30
3628;DHT22;1830;49.000;12.074;2023-04-25T11:34:52;12.00;98.50
3628;DHT22;1830;49.000;12.074;2023-04-25T11:37:21;12.20;98.30
3628;DHT22;1830;49.000;12.074;2023-04-25T11:39:48;12.20;97.90
3628;DHT22;1830;49.000;12.074;2023-04-25T11:42:15;12.20;98.20
3628;DHT22;1830;49.000;12.074;2023-04-25T11:44:42;12.40;98.10
3628;DHT22;1830;49.000;12.074;2023-04-25T11:47:09;12.20;97.20
3628;DHT22;1830;49.000;12.074;2023-04-25T11:49:36;12.40;97.70
3628;DHT22;1830;49.000;12.074;2023-04-25T11:52:06;12.20;97.30
3628;DHT22;1830;49.000;12.074;2023-04-25T11:54:36;12.40;97.30
3628;DHT22;1830;49.000;12.074;2023-04-25T11:57:03;12.30;96.60
3628;DHT22;1830;49.000;12.074;2023-04-25T11:59:30;12.40;96.30
3628;DHT22;1830;49.000;12.074;2023-04-25T12:01:57;12.50;96.30
3628;DHT22;1830;49.000;12.074;2023-04-25T12:04:26;12.50;95.90
3628;DHT22;1830;49.000;12.074;2023-04-25T12:06:54;12.70;95.20
3628;DHT22;1830;49.000;12.074;2023-04-25T12:09:28;13.00;95.60
3628;DHT22;1830;49.000;12.074;2023-04-25T12:11:58;13.30;92.90
3628;DHT22;1830;49.000;12.074;2023-04-25T12:14:29;13.10;90.80
3628;DHT22;1830;49.000;12.074;2023-04-25T12:16:57;13.00;91.30
3628;DHT22;1830;49.000;12.074;2023-04-25T12:19:25;13.20;92.80
3628;DHT22;1830;49.000;12.074;2023-04-25T12:21:53;13.30;93.20
3628;DHT22;1830;49.000;12.074;2023-04-25T12:24:22;13.70;92.90
3628;DHT22;1830;49.000;12.074;2023-04-25T12:26:52;13.90;92.20
3628;DHT22;1830;49.000;12.074;2023-04-25T12:29:22;13.90;91.90
3628;DHT22;1830;49.000;12.074;2023-04-25T12:31:50;13.50;91.90
3628;DHT22;1830;49.000;12.074;2023-04-25T12:34:17;13.30;92.40
3628;DHT22;1830;49.000;12.074;2023-04-25T12:36:44;13.10;91.80
3628;DHT22;1830;49.000;12.074;2023-04-25T12:39:15;12.90;91.30
3628;DHT22;1830;49.000;12.074;2023-04-25T12:41:42;12.70;91.50
3628;DHT22;1830;49.000;12.074;2023-04-25T12:44:10;12.70;91.80
3628;DHT22;1830;49.000;12.074;2023-04-25T12:46:38;12.60;92.30
3628;DHT22;1830;49.000;12.074;2023-04-25T12:49:06;12.70;92.20
3628;DHT22;1830;49.000;12.074;2023-04-25T12:51:33;12.80;91.80
3628;DHT22;1830;49.000;12.074;2023-04-25T12:54:01;13.30;92.00
3628;DHT22;1830;49.000;12.074;2023-04-25T12:56:28;13.40;91.70
3628;DHT22;1830;49.000;12.074;2023-04-25T12:58:55;13.40;90.70
3628;DHT22;1830;49.000;12.074;2023-04-25T13:01:23;13.30;88.70
3628;DHT22;1830;49.000;12.074;2023-04-25T13:03:51;13.30;89.50
3628;DHT22;1830;49.000;12.074;2023-04-25T13:06:19;13.20;89.50
3628;DHT22;1830;49.000;12.074;2023-04-25T13:08:46;13.20;90.30
3628;DHT22;1830;49.000;12.074;2023-04-25T13:11:13;13.10;90.60
3628;DHT22;1830;49.000;12.074;2023-04-25T13:13:41;13.10;91.30
3628;DHT22;1830;49.000;12.074;2023-04-25T13:16:08;13.00;91.70
3628;DHT22;1830;49.000;12.074;2023-04-25T13:18:35;13.00;91.40
3628;DHT22;1830;49.000;12.074;2023-04-25T13:21:03;12.80;91.10
3628;DHT22;1830;49.000;12.074;2023-04-25T13:23:30;12.70;91.40
3628;DHT22;1830;49.000;12.074;2023-04-25T13:25:57;12.60;91.80
3628;DHT22;1830;49.000;12.074;2023-04-25T13:28:24;12.60;91.70
3628;DHT22;1830;49.000;12.074;2023-04-25T13:30:51;12.60;91.80
3628;DHT22;1830;49.000;12.074;2023-04-25T13:33:18;12.50;92.30
3628;DHT22;1830;49.000;12.074;2023-04-25T13:35:47;12.30;92.30
3628;DHT22;1830;49.000;12.074;2023-04-25T13:38:20;12.30;93.10
3628;DHT22;1830;49.000;12.074;2023-04-25T13:40:48;12.30;92.80
3628;DHT22;1830;49.000;12.074;2023-04-25T13:43:18;12.30;93.30
3628;DHT22;1830;49.000;12.074;2023-04-25T13:45:45;12.40;93.30
3628;DHT22;1830;49.000;12.074;2023-04-25T13:48:11;12.30;93.40
3628;DHT22;1830;49.000;12.074;2023-04-25T13:50:38;12.20;93.60
3628;DHT22;1830;49.000;12.074;2023-04-25T13:53:05;12.20;93.50
3628;DHT22;1830;49.000;12.074;2023-04-25T13:55:34;12.10;93.50
3628;DHT22;1830;49.000;12.074;2023-04-25T13:58:02;12.00;94.00
3628;DHT22;1830;49.000;12.074;2023-04-25T14:00:33;12.10;94.30
3628;DHT22;1830;49.000;12.074;2023-04-25T14:03:00;12.10;94.40
3628;DHT22;1830;49.000;12.074;2023-04-25T14:05:30;12.10;93.50
3628;DHT22;1830;49.000;12.074;2023-04-25T14:07:57;12.20;92.80
3628;DHT22;1830;49.000;12.074;2023-04-25T14:10:25;12.20;92.60
3628;DHT22;1830;49.000;12.074;2023-04-25T14:12:53;12.20;92.50
3628;DHT22;1830;49.000;12.074;2023-04-25T14:15:20;12.00;93.10
3628;DHT22;1830;49.000;12.074;2023-04-25T14:17:47;12.10;92.60
3628;DHT22;1830;49.000;12.074;2023-04-25T14:20:14;12.10;92.10
3628;DHT22;1830;49.000;12.074;2023-04-25T14:22:41;12.10;92.10
3628;DHT22;1830;49.000;12.074;2023-04-25T14:25:09;12.10;92.10
3628;DHT22;1830;49.000;12.074;2023-04-25T14:27:36;12.10;92.10
3628;DHT22;1830;49.000;12.074;2023-04-25T14:30:05;12.50;92.10
3628;DHT22;1830;49.000;12.074;2023-04-25T14:32:34;12.80;91.50
3628;DHT22;1830;49.000;12.074;2023-04-25T14:35:01;13.00;90.70
3628;DHT22;1830;49.000;12.074;2023-04-25T14:37:28;13.10;90.20
3628;DHT22;1830;49.000;12.074;2023-04-25T14:39:55;13.20;90.70
3628;DHT22;1830;49.000;12.074;2023-04-25T14:42:22;13.00;90.50
3628;DHT22;1830;49.000;12.074;2023-04-25T14:44:49;13.00;90.60
3628;DHT22;1830;49.000;12.074;2023-04-25T14:47:17;12.90;91.20
3628;DHT22;1830;49.000;12.074;2023-04-25T14:49:45;12.90;91.50
3628;DHT22;1830;49.000;12.074;2023-04-25T14:52:19;12.90;91.00
3628;DHT22;1830;49.000;12.074;2023-04-25T14:54:46;12.90;90.10
3628;DHT22;1830;49.000;12.074;2023-04-25T14:57:13;12.80;89.90
3628;DHT22;1830;49.000;12.074;2023-04-25T14:59:39;12.70;88.30
3628;DHT22;1830;49.000;12.074;2023-04-25T15:02:06;12.60;87.60
3628;DHT22;1830;49.000;12.074;2023-04-25T15:04:34;12.50;87.60
3628;DHT22;1830;49.000;12.074;2023-04-25T15:07:01;12.40;87.60
3628;DHT22;1830;49.000;12.074;2023-04-25T15:09:29;12.30;88.10
3628;DHT22;1830;49.000;12.074;2023-04-25T15:11:56;12.10;88.50
3628;DHT22;1830;49.000;12.074;2023-04-25T15:14:23;12.20;88.50
3628;DHT22;1830;49.000;12.074;2023-04-25T15:16:50;11.80;88.80
3628;DHT22;1830;49.000;12.074;2023-04-25T15:19:17;12.00;89.30
3628;DHT22;1830;49.000;12.074;2023-04-25T15:21:46;12.00;89.70
3628;DHT22;1830;49.000;12.074;2023-04-25T15:24:13;12.00;89.90
3628;DHT22;1830;49.000;12.074;2023-04-25T15:26:40;12.20;90.30
3628;DHT22;1830;49.000;12.074;2023-04-25T15:29:07;12.50;90.10
3628;DHT22;1830;49.000;12.074;2023-04-25T15:31:34;12.70;89.90
3628;DHT22;1830;49.000;12.074;2023-04-25T15:34:01;12.70;85.60
3628;DHT22;1830;49.000;12.074;2023-04-25T15:36:27;12.70;83.60
3628;DHT22;1830;49.000;12.074;2023-04-25T15:38:56;12.60;84.50
3628;DHT22;1830;49.000;12.074;2023-04-25T15:41:23;12.50;84.40
3628;DHT22;1830;49.000;12.074;2023-04-25T15:43:52;12.40;84.90
3628;DHT22;1830;49.000;12.074;2023-04-25T15:46:19;12.30;86.40
3628;DHT22;1830;49.000;12.074;2023-04-25T15:48:46;12.30;86.20
3628;DHT22;1830;49.000;12.074;2023-04-25T15:51:13;12.20;87.40
3628;DHT22;1830;49.000;12.074;2023-04-25T15:53:41;12.30;90.20
3628;DHT22;1830;49.000;12.074;2023-04-25T15:56:09;12.20;89.70
3628;DHT22;1830;49.000;12.074;2023-04-25T15:58:36;12.10;88.70